createdAt,value
2023-04-06T00:00:41.304Z,5.57
2023-04-06T00:07:23.554Z,4.47
2023-04-06T00:14:24.596Z,3.85
2023-04-06T00:21:26.860Z,5.53
2023-04-06T00:28:27.911Z,4.90
2023-04-06T00:35:28.814Z,7.70
2023-04-06T00:42:14.614Z,3.85
2023-04-06T00:49:15.587Z,4.10
2023-04-06T00:55:57.760Z,2.75
2023-04-06T01:02:59.557Z,2.70
2023-04-06T01:09:49.980Z,3.08
2023-04-06T01:17:01.680Z,2.75
2023-04-06T01:23:47.859Z,3.63
2023-04-06T01:30:54.797Z,3.15
2023-04-06T01:38:14.715Z,2.90
2023-04-06T01:44:57.000Z,3.03
2023-04-06T01:51:40.156Z,3.80
2023-04-06T01:58:44.809Z,3.80
2023-04-06T02:05:49.335Z,4.80
2023-04-06T02:13:02.035Z,7.55
2023-04-06T02:20:03.334Z,6.70
2023-04-06T02:27:04.389Z,7.28
2023-04-06T02:34:05.499Z,8.55
2023-04-06T02:40:49.212Z,7.88
2023-04-06T02:47:36.205Z,7.07
2023-04-06T02:54:38.084Z,7.60
2023-04-06T03:01:21.258Z,7.00
2023-04-06T03:08:09.783Z,6.97
2023-04-06T03:14:57.370Z,8.13
2023-04-06T03:21:39.794Z,8.48
2023-04-06T03:28:42.116Z,8.18
2023-04-06T03:35:25.652Z,8.82
2023-04-06T03:42:27.759Z,8.43
2023-04-06T03:49:34.943Z,8.20
2023-04-06T03:56:17.609Z,7.65
2023-04-06T04:03:00.485Z,7.13
2023-04-06T04:09:42.707Z,7.05
2023-04-06T04:16:43.941Z,8.23
2023-04-06T04:23:26.175Z,6.13
2023-04-06T04:30:27.228Z,7.68
2023-04-06T04:37:28.192Z,8.45
2023-04-06T04:44:12.106Z,7.78
2023-04-06T04:51:12.978Z,8.50
2023-04-06T04:58:36.943Z,8.15
2023-04-06T05:05:38.022Z,9.50
2023-04-06T05:12:22.299Z,8.25
2023-04-06T05:19:41.313Z,9.63
2023-04-06T05:26:42.772Z,9.57
2023-04-06T05:33:34.345Z,8.75
2023-04-06T05:40:45.601Z,7.93
2023-04-06T05:47:50.225Z,8.00
2023-04-06T05:54:40.565Z,6.22
2023-04-06T06:01:22.904Z,4.57
2023-04-06T06:08:24.046Z,4.68
2023-04-06T06:15:08.379Z,7.30
2023-04-06T06:21:54.752Z,7.03
2023-04-06T06:28:56.258Z,6.88
2023-04-06T06:35:58.039Z,5.75
2023-04-06T06:42:58.786Z,5.80
2023-04-06T06:50:08.434Z,6.15
2023-04-06T06:57:09.324Z,4.78
2023-04-06T07:04:10.531Z,3.67
2023-04-06T07:11:11.707Z,3.17
2023-04-06T07:18:13.302Z,3.20
2023-04-06T07:25:14.080Z,4.78
2023-04-06T07:32:15.912Z,4.05
2023-04-06T07:39:16.811Z,5.43
2023-04-06T07:46:17.821Z,3.30
2023-04-06T07:53:19.198Z,2.75
2023-04-06T08:00:21.931Z,2.50
2023-04-06T08:07:22.852Z,2.72
2023-04-06T08:14:23.873Z,3.10
2023-04-06T08:21:06.228Z,3.05
2023-04-06T08:27:48.437Z,3.60
2023-04-06T08:34:30.788Z,3.95
2023-04-06T08:41:14.760Z,2.90
2023-04-06T08:48:00.055Z,2.22
2023-04-06T08:54:42.310Z,3.22
2023-04-06T09:01:28.100Z,2.35
2023-04-06T09:08:10.295Z,2.40
2023-04-06T09:14:52.588Z,2.45
2023-04-06T09:21:35.304Z,2.20
2023-04-06T09:28:17.619Z,3.15
2023-04-06T09:35:09.900Z,3.38
2023-04-06T09:41:55.533Z,5.15
2023-04-06T09:48:38.914Z,2.42
2023-04-06T09:55:36.255Z,2.58
2023-04-06T10:02:46.876Z,3.00
2023-04-06T10:09:36.569Z,2.10
2023-04-06T10:16:19.318Z,2.28
2023-04-06T10:23:27.798Z,2.90
2023-04-06T10:30:10.190Z,2.50
2023-04-06T10:36:52.413Z,2.33
2023-04-06T10:43:40.140Z,2.15
2023-04-06T10:50:23.366Z,2.58
2023-04-06T10:57:05.610Z,2.17
2023-04-06T11:03:50.964Z,2.30
2023-04-06T11:17:15.451Z,2.05
2023-04-06T11:24:22.531Z,1.77
2023-04-06T11:31:04.839Z,2.22
2023-04-06T11:37:47.126Z,1.50
2023-04-06T11:44:41.022Z,1.67
2023-04-06T11:51:24.956Z,1.50
2023-04-06T11:58:08.132Z,1.73
2023-04-06T12:04:50.732Z,4.95
2023-04-06T12:11:33.028Z,1.30
2023-04-06T12:18:15.587Z,1.60
2023-04-06T12:24:57.799Z,1.30
2023-04-06T12:31:41.931Z,1.02
2023-04-06T12:38:24.231Z,0.80
2023-04-06T12:45:07.464Z,2.22
2023-04-06T12:51:49.818Z,0.60
2023-04-06T12:58:32.290Z,3.83
2023-04-06T13:05:19.962Z,0.95
2023-04-06T13:12:02.812Z,0.70
2023-04-06T13:18:45.009Z,0.75
2023-04-06T13:25:27.318Z,0.70
2023-04-06T13:32:11.357Z,1.02
2023-04-06T13:38:54.361Z,0.60
2023-04-06T13:45:36.722Z,0.80
2023-04-06T13:52:19.525Z,0.70
2023-04-06T13:59:01.694Z,0.70
2023-04-06T14:05:44.077Z,0.90
2023-04-06T14:12:26.253Z,0.80
2023-04-06T14:19:08.513Z,1.02
2023-04-06T14:25:51.328Z,1.10
2023-04-06T14:32:33.567Z,0.98
2023-04-06T14:39:15.973Z,1.40
2023-04-06T14:46:02.298Z,1.20
2023-04-06T14:52:44.469Z,1.90
2023-04-06T14:59:26.713Z,1.17
2023-04-06T15:06:16.199Z,3.67
2023-04-06T15:12:58.456Z,0.85
2023-04-06T15:19:40.838Z,0.95
2023-04-06T15:26:22.999Z,0.82
2023-04-06T15:33:08.094Z,1.88
2023-04-06T15:39:50.305Z,1.20
2023-04-06T15:46:32.683Z,12.60
2023-04-06T15:53:14.842Z,11.70
2023-04-06T15:59:58.521Z,2.28
2023-04-06T16:06:41.310Z,1.20
2023-04-06T16:13:24.361Z,2.67
2023-04-06T16:20:07.827Z,1.38
2023-04-06T16:26:50.881Z,5.65
2023-04-06T16:33:33.166Z,3.60
2023-04-06T16:40:16.140Z,2.67
2023-04-06T16:46:58.716Z,1.52
2023-04-06T16:53:41.029Z,1.30
2023-04-06T17:00:23.684Z,2.65
2023-04-06T17:07:06.142Z,2.25
2023-04-06T17:13:50.368Z,2.05
2023-04-06T17:20:34.774Z,5.25
2023-04-06T17:27:16.979Z,2.37
2023-04-06T17:33:59.900Z,2.72
2023-04-06T17:40:42.215Z,3.65
2023-04-06T17:47:25.794Z,9.13
2023-04-06T17:54:08.001Z,3.00
2023-04-06T18:00:50.284Z,2.35
2023-04-06T18:07:32.743Z,1.95
2023-04-06T18:14:16.133Z,1.70
2023-04-06T18:20:58.384Z,2.40
2023-04-06T18:27:40.649Z,2.10
2023-04-06T18:34:23.240Z,2.10
2023-04-06T18:41:05.783Z,2.38
2023-04-06T18:47:47.952Z,3.40
2023-04-06T18:54:30.316Z,2.95
2023-04-06T19:01:28.794Z,10.90
2023-04-06T19:08:12.529Z,2.30
2023-04-06T19:14:54.716Z,2.45
2023-04-06T19:21:37.411Z,2.40
2023-04-06T19:28:19.602Z,2.00
2023-04-06T19:35:06.294Z,1.90
2023-04-06T19:41:49.531Z,2.25
2023-04-06T19:48:33.919Z,2.42
2023-04-06T19:55:16.276Z,3.00
2023-04-06T20:01:58.604Z,4.10
2023-04-06T20:08:44.535Z,2.85
2023-04-06T20:15:27.070Z,2.15
2023-04-06T20:22:09.255Z,1.80
2023-04-06T20:28:51.490Z,2.10
2023-04-06T20:35:34.994Z,1.92
2023-04-06T20:42:17.862Z,3.00
2023-04-06T20:49:00.044Z,3.25
2023-04-06T20:55:42.888Z,2.53
2023-04-06T21:02:26.220Z,3.90
2023-04-06T21:09:08.764Z,2.78
2023-04-06T21:15:51.743Z,2.63
2023-04-06T21:22:34.390Z,2.10
2023-04-06T21:29:16.706Z,2.25
2023-04-06T21:35:58.881Z,1.65
2023-04-06T21:42:41.030Z,2.15
2023-04-06T21:49:23.216Z,2.60
2023-04-06T21:56:05.764Z,2.70
2023-04-06T22:02:48.220Z,2.67
2023-04-06T22:09:31.553Z,3.15
2023-04-06T22:16:14.727Z,2.42
2023-04-06T22:22:57.324Z,3.38
2023-04-06T22:29:39.661Z,3.15
2023-04-06T22:36:21.963Z,3.03
2023-04-06T22:43:04.246Z,3.90
2023-04-06T22:49:46.605Z,3.95
2023-04-06T22:56:28.770Z,4.30
2023-04-06T23:03:11.509Z,4.65
2023-04-06T23:09:53.836Z,4.95
2023-04-06T23:16:36.506Z,6.30
2023-04-06T23:23:18.648Z,6.72
2023-04-06T23:30:00.885Z,6.18
2023-04-06T23:36:43.169Z,6.85
2023-04-06T23:43:25.379Z,7.95
2023-04-06T23:50:08.301Z,7.30
2023-04-06T23:56:52.022Z,10.07
